createdAt,value
2022-11-16T00:01:03.126Z,18.88
2022-11-16T00:05:23.123Z,17.38
2022-11-16T00:09:44.318Z,16.63
2022-11-16T00:14:01.566Z,16.00
2022-11-16T00:18:18.757Z,15.30
2022-11-16T00:22:35.991Z,15.35
2022-11-16T00:26:54.833Z,16.38
2022-11-16T00:31:12.113Z,14.52
2022-11-16T00:35:29.374Z,14.07
2022-11-16T00:39:46.598Z,17.02
2022-11-16T00:44:03.888Z,15.73
2022-11-16T00:48:21.376Z,15.75
2022-11-16T00:52:38.635Z,15.32
2022-11-16T00:56:55.797Z,15.88
2022-11-16T01:01:13.761Z,17.75
2022-11-16T01:05:31.424Z,18.23
2022-11-16T01:09:48.644Z,16.48
2022-11-16T01:14:09.219Z,15.43
2022-11-16T01:18:26.357Z,13.27
2022-11-16T01:22:43.935Z,13.68
2022-11-16T01:27:01.227Z,14.82
2022-11-16T01:31:18.522Z,14.15
2022-11-16T01:35:35.710Z,13.20
2022-11-16T01:39:52.979Z,12.75
2022-11-16T01:44:33.991Z,13.18
2022-11-16T01:48:59.874Z,12.15
2022-11-16T01:53:17.570Z,15.13
2022-11-16T01:57:39.888Z,13.87
2022-11-16T02:02:00.001Z,12.68
2022-11-16T02:06:42.156Z,12.73
2022-11-16T02:11:23.446Z,12.13
2022-11-16T02:15:45.278Z,10.50
2022-11-16T02:20:39.276Z,12.70
2022-11-16T02:25:17.198Z,12.30
2022-11-16T02:29:45.828Z,11.90
2022-11-16T02:34:05.662Z,12.23
2022-11-16T02:38:27.671Z,12.90
2022-11-16T02:42:56.107Z,13.00
2022-11-16T02:47:19.559Z,15.15
2022-11-16T02:51:38.262Z,19.50
2022-11-16T02:55:56.383Z,19.17
2022-11-16T03:05:16.111Z,20.67
2022-11-16T03:09:36.721Z,22.20
2022-11-16T03:14:06.555Z,20.33
2022-11-16T03:18:26.967Z,21.00
2022-11-16T03:22:47.212Z,21.42
2022-11-16T03:27:24.722Z,21.85
2022-11-16T03:31:48.718Z,20.58
2022-11-16T03:36:13.047Z,16.48
2022-11-16T03:40:33.538Z,16.85
2022-11-16T03:44:51.711Z,15.63
2022-11-16T03:49:09.053Z,16.65
2022-11-16T03:53:26.244Z,14.93
2022-11-16T03:57:43.707Z,16.00
2022-11-16T04:02:00.918Z,15.43
2022-11-16T04:06:36.950Z,15.75
2022-11-16T04:11:13.012Z,15.70
2022-11-16T04:15:48.811Z,16.27
2022-11-16T04:20:24.738Z,16.05
2022-11-16T04:24:45.616Z,15.68
2022-11-16T04:29:02.821Z,15.55
2022-11-16T04:33:38.867Z,16.02
2022-11-16T04:37:58.314Z,16.38
2022-11-16T04:42:22.269Z,15.32
2022-11-16T04:46:58.287Z,15.85
2022-11-16T04:51:15.444Z,15.27
2022-11-16T04:55:33.244Z,15.25
2022-11-16T04:59:50.411Z,15.17
2022-11-16T05:04:07.599Z,14.00
2022-11-16T05:08:25.507Z,14.50
2022-11-16T05:12:42.857Z,14.20
2022-11-16T05:17:00.043Z,13.68
2022-11-16T05:21:17.214Z,15.00
2022-11-16T05:25:37.015Z,14.45
2022-11-16T05:29:55.120Z,12.80
2022-11-16T05:34:12.646Z,14.70
2022-11-16T05:38:29.849Z,13.10
2022-11-16T05:42:47.117Z,12.23
2022-11-16T05:47:04.614Z,12.65
2022-11-16T05:51:21.850Z,12.90
2022-11-16T05:55:39.119Z,13.20
2022-11-16T05:59:56.286Z,12.80
2022-11-16T06:04:14.259Z,12.73
2022-11-16T06:08:32.122Z,13.17
2022-11-16T06:12:49.471Z,14.07
2022-11-16T06:17:06.654Z,13.85
2022-11-16T06:21:23.954Z,12.85
2022-11-16T06:25:41.378Z,13.98
2022-11-16T06:29:58.621Z,14.77
2022-11-16T06:34:15.979Z,12.77
2022-11-16T06:38:33.631Z,13.57
2022-11-16T06:42:51.213Z,11.48
2022-11-16T06:47:08.408Z,12.68
2022-11-16T06:51:26.070Z,10.50
2022-11-16T06:55:43.398Z,10.93
2022-11-16T07:00:01.005Z,15.50
2022-11-16T07:04:18.313Z,11.90
2022-11-16T07:08:36.381Z,11.25
2022-11-16T07:12:53.787Z,10.30
2022-11-16T07:17:11.391Z,11.45
2022-11-16T07:21:29.181Z,10.48
2022-11-16T07:25:47.256Z,11.67
2022-11-16T07:30:05.582Z,10.27
2022-11-16T07:34:22.834Z,9.95
2022-11-16T07:38:40.182Z,9.38
2022-11-16T07:42:58.591Z,8.70
2022-11-16T07:47:15.784Z,8.98
2022-11-16T07:51:33.172Z,9.57
2022-11-16T07:55:54.395Z,10.50
2022-11-16T08:00:12.019Z,9.05
2022-11-16T08:04:29.208Z,10.85
2022-11-16T08:08:46.399Z,10.20
2022-11-16T08:13:04.075Z,10.32
2022-11-16T08:17:21.315Z,9.70
2022-11-16T08:21:38.765Z,9.55
2022-11-16T08:26:07.778Z,8.85
2022-11-16T08:30:24.972Z,9.23
2022-11-16T08:34:42.189Z,8.85
2022-11-16T08:38:59.374Z,8.60
2022-11-16T08:43:16.549Z,8.65
2022-11-16T08:47:33.844Z,8.23
2022-11-16T08:51:51.053Z,9.30
2022-11-16T08:56:12.452Z,9.50
2022-11-16T09:00:29.715Z,9.65
2022-11-16T09:04:47.117Z,10.73
2022-11-16T09:09:04.968Z,10.45
2022-11-16T09:13:22.155Z,11.90
2022-11-16T09:17:39.355Z,11.52
2022-11-16T09:21:56.626Z,11.80
2022-11-16T09:26:14.486Z,11.93
2022-11-16T09:30:31.757Z,13.00
2022-11-16T09:34:49.258Z,11.95
2022-11-16T09:44:02.587Z,17.83
2022-11-16T09:48:21.786Z,11.55
2022-11-16T09:52:44.441Z,13.57
2022-11-16T09:57:12.068Z,13.93
2022-11-16T10:01:47.788Z,13.00
2022-11-16T10:06:16.662Z,11.98
2022-11-16T10:10:38.404Z,12.63
2022-11-16T10:15:32.400Z,12.25
2022-11-16T10:20:34.206Z,14.25
2022-11-16T10:24:59.535Z,16.85
2022-11-16T10:29:43.293Z,16.35
2022-11-16T10:34:02.398Z,17.30
2022-11-16T10:38:24.223Z,18.75
2022-11-16T10:42:41.471Z,17.00
2022-11-16T10:47:05.984Z,19.08
2022-11-16T10:51:23.409Z,21.67
2022-11-16T10:55:40.641Z,15.48
2022-11-16T10:59:59.073Z,17.48
2022-11-16T11:04:31.593Z,16.75
2022-11-16T11:08:48.851Z,16.90
2022-11-16T11:13:11.902Z,21.13
2022-11-16T11:17:30.624Z,23.10
2022-11-16T11:26:05.658Z,12.68
2022-11-16T11:30:23.118Z,15.68
2022-11-16T11:34:47.216Z,25.52
2022-11-16T11:39:13.587Z,15.45
2022-11-16T11:43:33.551Z,24.30
2022-11-16T11:48:01.719Z,26.50
2022-11-16T11:52:29.655Z,13.00
2022-11-16T11:56:46.840Z,16.00
2022-11-16T12:01:25.932Z,19.63
2022-11-16T12:06:06.833Z,19.45
2022-11-16T12:10:30.130Z,19.20
2022-11-16T12:15:00.070Z,20.48
2022-11-16T12:19:25.812Z,20.48
2022-11-16T12:23:55.518Z,23.60
2022-11-16T12:28:21.495Z,31.02
2022-11-16T12:33:03.378Z,36.42
2022-11-16T12:37:29.735Z,24.90
2022-11-16T12:42:03.868Z,20.30
2022-11-16T12:46:38.209Z,21.45
2022-11-16T12:51:18.308Z,21.38
2022-11-16T12:55:59.178Z,22.50
2022-11-16T13:00:18.917Z,24.35
2022-11-16T13:04:47.317Z,24.67
2022-11-16T13:09:15.571Z,24.13
2022-11-16T13:13:36.666Z,22.53
2022-11-16T13:18:01.674Z,22.40
2022-11-16T13:22:24.211Z,27.23
2022-11-16T13:26:54.394Z,23.90
2022-11-16T13:31:19.812Z,23.73
2022-11-16T13:35:38.462Z,30.40
2022-11-16T13:39:58.416Z,28.08
2022-11-16T13:44:20.148Z,36.53
2022-11-16T13:48:44.320Z,28.38
2022-11-16T13:53:57.746Z,32.53
2022-11-16T13:57:54.746Z,22.10
2022-11-16T14:02:39.393Z,18.98
2022-11-16T14:06:58.865Z,27.25
2022-11-16T14:11:39.269Z,33.35
2022-11-16T14:16:15.102Z,51.80
2022-11-16T14:21:04.886Z,45.42
2022-11-16T14:25:33.657Z,27.67
2022-11-16T14:29:56.783Z,20.42
2022-11-16T14:34:21.476Z,22.52
2022-11-16T14:38:41.901Z,25.48
2022-11-16T14:43:21.531Z,27.20
2022-11-16T14:47:39.630Z,22.88
2022-11-16T14:51:59.839Z,44.50
2022-11-16T14:56:19.123Z,24.90
2022-11-16T15:00:38.323Z,39.28
2022-11-16T15:04:55.852Z,27.00
2022-11-16T15:09:32.571Z,27.23
2022-11-16T15:13:50.662Z,20.75
2022-11-16T15:18:14.877Z,22.30
2022-11-16T15:22:39.659Z,25.38
2022-11-16T15:27:08.232Z,28.70
2022-11-16T15:31:25.875Z,30.65
2022-11-16T15:35:43.709Z,30.85
2022-11-16T15:40:03.307Z,27.45
2022-11-16T15:44:24.488Z,27.27
2022-11-16T15:48:43.452Z,33.17
2022-11-16T15:53:01.017Z,27.75
2022-11-16T15:57:20.001Z,30.75
2022-11-16T16:01:45.120Z,27.13
2022-11-16T16:06:04.424Z,34.08
2022-11-16T16:10:24.595Z,39.30
2022-11-16T16:14:42.821Z,38.53
2022-11-16T16:19:09.262Z,20.17
2022-11-16T16:23:30.221Z,22.52
2022-11-16T16:27:48.696Z,16.30
2022-11-16T16:32:08.443Z,24.33
2022-11-16T16:36:25.950Z,25.90
2022-11-16T16:40:43.508Z,22.50
2022-11-16T16:45:02.246Z,27.83
2022-11-16T16:49:19.734Z,28.58
2022-11-16T16:53:37.470Z,26.42
2022-11-16T16:57:57.510Z,24.42
2022-11-16T17:02:16.245Z,24.73
2022-11-16T17:10:51.120Z,26.83
2022-11-16T17:15:09.637Z,21.67
2022-11-16T17:19:28.370Z,23.30
2022-11-16T17:28:03.204Z,30.67
2022-11-16T17:32:21.741Z,29.33
2022-11-16T17:36:39.325Z,32.40
2022-11-16T17:41:14.875Z,20.60
2022-11-16T17:45:32.230Z,22.42
2022-11-16T17:49:49.783Z,29.33
2022-11-16T17:54:07.136Z,27.42
2022-11-16T17:58:25.715Z,29.58
2022-11-16T18:02:43.156Z,25.35
2022-11-16T18:07:01.286Z,19.20
2022-11-16T18:11:24.423Z,18.13
2022-11-16T18:15:42.648Z,18.73
2022-11-16T18:20:00.230Z,18.77
2022-11-16T18:24:17.698Z,18.05
2022-11-16T18:28:35.059Z,18.83
2022-11-16T18:32:52.290Z,18.70
2022-11-16T18:37:09.549Z,18.00
2022-11-16T18:41:28.963Z,20.63
2022-11-16T18:45:46.205Z,22.58
2022-11-16T18:50:06.094Z,24.70
2022-11-16T18:54:23.275Z,26.77
2022-11-16T18:58:50.814Z,26.55
2022-11-16T19:03:11.254Z,25.60
2022-11-16T19:07:28.969Z,26.60
2022-11-16T19:11:46.487Z,29.88
2022-11-16T19:16:04.001Z,47.63
2022-11-16T19:20:21.333Z,29.58
2022-11-16T19:24:38.613Z,20.08
2022-11-16T19:28:55.987Z,26.17
2022-11-16T19:33:14.835Z,24.90
2022-11-16T19:37:32.121Z,35.63
2022-11-16T19:41:49.354Z,38.13
2022-11-16T19:46:12.227Z,34.53
2022-11-16T19:50:29.486Z,43.80
2022-11-16T19:54:46.794Z,86.90
2022-11-16T19:59:04.074Z,32.53
2022-11-16T20:03:21.250Z,29.05
2022-11-16T20:07:38.806Z,29.45
2022-11-16T20:11:56.828Z,25.90
2022-11-16T20:16:15.865Z,19.43
2022-11-16T20:20:33.046Z,19.05
2022-11-16T20:24:50.300Z,20.17
2022-11-16T20:29:07.579Z,23.02
2022-11-16T20:33:24.906Z,21.63
2022-11-16T20:37:43.358Z,21.17
2022-11-16T20:42:00.593Z,19.42
2022-11-16T20:46:19.079Z,19.63
2022-11-16T20:50:36.340Z,19.80
2022-11-16T20:54:53.838Z,21.30
2022-11-16T20:59:11.062Z,20.58
2022-11-16T21:03:28.995Z,19.00
2022-11-16T21:07:46.383Z,21.43
2022-11-16T21:12:22.395Z,25.33
2022-11-16T21:16:40.110Z,25.50
2022-11-16T21:21:04.110Z,28.50
2022-11-16T21:25:21.282Z,30.15
2022-11-16T21:29:38.558Z,30.65
2022-11-16T21:33:56.658Z,30.90
2022-11-16T21:38:13.835Z,32.60
2022-11-16T21:42:31.236Z,30.65
2022-11-16T21:46:48.431Z,31.88
2022-11-16T21:51:13.034Z,30.35
2022-11-16T21:55:30.421Z,31.75
2022-11-16T21:59:47.594Z,30.50
2022-11-16T22:04:43.523Z,30.75
2022-11-16T22:09:01.637Z,32.08
2022-11-16T22:13:19.917Z,34.33
2022-11-16T22:17:41.159Z,35.33
2022-11-16T22:21:59.421Z,29.90
2022-11-16T22:26:16.766Z,31.02
2022-11-16T22:30:34.087Z,31.90
2022-11-16T22:34:51.437Z,31.63
2022-11-16T22:39:08.622Z,32.60
2022-11-16T22:43:29.660Z,37.53
2022-11-16T22:47:49.700Z,39.08
2022-11-16T22:52:10.816Z,37.05
2022-11-16T22:56:29.493Z,36.15
2022-11-16T23:05:04.018Z,36.10
2022-11-16T23:09:21.256Z,38.47
2022-11-16T23:13:57.237Z,42.35
2022-11-16T23:18:14.858Z,39.88
2022-11-16T23:22:50.797Z,40.15
2022-11-16T23:27:28.588Z,37.53
2022-11-16T23:31:45.855Z,45.08
2022-11-16T23:36:03.161Z,49.20
2022-11-16T23:40:21.790Z,45.63
2022-11-16T23:48:56.900Z,48.50
2022-11-16T23:53:14.515Z,42.25
2022-11-16T23:57:31.703Z,48.55
